createdAt,value
2018-08-08T00:00:44.366Z,19.10
2018-08-08T00:03:48.652Z,19.17
2018-08-08T00:06:53.014Z,19.13
2018-08-08T00:09:57.653Z,19.19
2018-08-08T00:13:01.942Z,19.09
2018-08-08T00:16:06.627Z,19.12
2018-08-08T00:19:10.944Z,19.16
2018-08-08T00:22:15.285Z,19.16
2018-08-08T00:25:19.799Z,19.13
2018-08-08T00:28:24.578Z,19.05
2018-08-08T00:31:28.976Z,18.99
2018-08-08T00:34:33.249Z,18.94
2018-08-08T00:37:38.049Z,19.01
2018-08-08T00:40:42.652Z,18.95
2018-08-08T00:43:46.989Z,18.90
2018-08-08T00:46:51.394Z,18.86
2018-08-08T00:49:55.889Z,18.91
2018-08-08T00:53:00.212Z,18.92
2018-08-08T00:56:04.948Z,18.95
2018-08-08T00:59:09.233Z,18.95
2018-08-08T01:02:13.655Z,18.85
2018-08-08T01:05:18.301Z,18.70
2018-08-08T01:08:22.729Z,18.69
2018-08-08T01:11:28.069Z,18.72
2018-08-08T01:14:32.365Z,18.69
2018-08-08T01:17:37.103Z,18.72
2018-08-08T01:20:41.677Z,18.61
2018-08-08T01:23:46.247Z,18.56
2018-08-08T01:26:50.563Z,18.53
2018-08-08T01:29:55.176Z,18.54
2018-08-08T01:32:59.774Z,18.58
2018-08-08T01:36:04.101Z,18.60
2018-08-08T01:39:10.282Z,18.61
2018-08-08T01:42:14.595Z,18.61
2018-08-08T01:45:19.145Z,18.55
2018-08-08T01:48:23.828Z,18.50
2018-08-08T01:51:28.531Z,18.49
2018-08-08T01:54:32.886Z,18.43
2018-08-08T01:57:37.414Z,18.45
2018-08-08T02:00:55.808Z,18.44
2018-08-08T02:04:01.240Z,18.49
2018-08-08T02:07:05.722Z,18.47
2018-08-08T02:10:15.221Z,18.52
2018-08-08T02:13:19.518Z,18.54
2018-08-08T02:16:23.917Z,18.49
2018-08-08T02:19:28.249Z,18.47
2018-08-08T02:22:32.538Z,18.42
2018-08-08T02:25:36.893Z,18.49
2018-08-08T02:28:41.205Z,18.48
2018-08-08T02:31:45.531Z,18.48
2018-08-08T02:34:49.849Z,18.51
2018-08-08T02:37:54.138Z,18.54
2018-08-08T02:40:58.418Z,18.54
2018-08-08T02:44:02.733Z,18.52
2018-08-08T02:47:07.049Z,18.48
2018-08-08T02:50:13.774Z,18.44
2018-08-08T02:53:18.103Z,18.45
2018-08-08T02:56:22.368Z,18.33
2018-08-08T02:59:26.645Z,18.32
2018-08-08T03:02:31.008Z,18.28
2018-08-08T03:05:35.513Z,18.28
2018-08-08T03:08:40.425Z,18.27
2018-08-08T03:11:45.314Z,18.27
2018-08-08T03:14:49.632Z,18.30
2018-08-08T03:17:53.886Z,18.34
2018-08-08T03:20:58.941Z,18.30
2018-08-08T03:24:03.231Z,18.26
2018-08-08T03:27:07.721Z,18.22
2018-08-08T03:30:19.703Z,18.22
2018-08-08T03:33:24.025Z,18.26
2018-08-08T03:36:28.603Z,18.27
2018-08-08T03:39:33.070Z,18.22
2018-08-08T03:42:37.430Z,18.19
2018-08-08T03:45:41.732Z,18.16
2018-08-08T03:48:46.294Z,18.16
2018-08-08T03:51:51.029Z,18.16
2018-08-08T03:54:56.854Z,18.18
2018-08-08T03:58:01.229Z,18.17
2018-08-08T04:01:05.753Z,18.20
2018-08-08T04:04:10.176Z,18.22
2018-08-08T04:07:14.575Z,18.22
2018-08-08T04:10:19.896Z,18.22
2018-08-08T04:13:24.297Z,18.26
2018-08-08T04:16:29.125Z,18.21
2018-08-08T04:19:33.467Z,18.22
2018-08-08T04:22:38.290Z,18.28
2018-08-08T04:25:42.591Z,18.22
2018-08-08T04:28:47.193Z,18.29
2018-08-08T04:31:51.629Z,18.36
2018-08-08T04:34:57.025Z,18.19
2018-08-08T04:38:01.486Z,18.31
2018-08-08T04:41:05.988Z,18.30
2018-08-08T04:44:19.603Z,18.42
2018-08-08T04:47:24.169Z,18.18
2018-08-08T04:50:28.592Z,17.94
2018-08-08T04:53:32.933Z,18.15
2018-08-08T04:56:37.355Z,18.27
2018-08-08T04:59:41.949Z,18.23
2018-08-08T05:02:46.867Z,18.42
2018-08-08T05:05:51.229Z,18.58
2018-08-08T05:09:02.265Z,18.72
2018-08-08T05:12:30.069Z,18.69
2018-08-08T05:15:34.765Z,18.88
2018-08-08T05:18:39.217Z,18.99
2018-08-08T05:21:43.774Z,19.18
2018-08-08T05:24:48.154Z,19.38
2018-08-08T05:27:52.465Z,19.49
2018-08-08T05:30:57.077Z,19.61
2018-08-08T05:34:01.529Z,19.71
2018-08-08T05:37:06.249Z,19.90
2018-08-08T05:40:21.026Z,20.09
2018-08-08T05:43:25.920Z,20.18
2018-08-08T05:46:30.283Z,20.30
2018-08-08T05:49:34.610Z,20.48
2018-08-08T05:52:39.205Z,20.70
2018-08-08T05:55:43.842Z,20.85
2018-08-08T05:58:48.182Z,21.17
2018-08-08T06:01:52.535Z,21.58
2018-08-08T06:04:58.859Z,22.08
2018-08-08T06:08:03.622Z,22.96
2018-08-08T06:11:08.677Z,23.23
2018-08-08T06:14:13.014Z,24.22
2018-08-08T06:17:17.302Z,24.90
2018-08-08T06:20:23.585Z,24.76
2018-08-08T06:23:28.007Z,24.64
2018-08-08T06:26:32.475Z,24.53
2018-08-08T06:29:36.898Z,25.08
2018-08-08T06:32:41.583Z,24.80
2018-08-08T06:35:46.025Z,24.70
2018-08-08T06:38:50.391Z,24.98
2018-08-08T06:41:54.772Z,25.55
2018-08-08T06:44:59.093Z,25.86
2018-08-08T06:48:03.569Z,26.87
2018-08-08T06:51:07.971Z,26.89
2018-08-08T06:54:12.410Z,27.13
2018-08-08T06:57:16.744Z,27.07
2018-08-08T07:00:24.707Z,27.29
2018-08-08T07:03:29.044Z,26.31
2018-08-08T07:06:33.364Z,26.69
2018-08-08T07:09:37.861Z,27.05
2018-08-08T07:12:42.207Z,27.35
2018-08-08T07:15:46.471Z,27.10
2018-08-08T07:18:50.836Z,27.35
2018-08-08T07:21:55.294Z,27.73
2018-08-08T07:24:59.969Z,28.16
2018-08-08T07:28:04.644Z,27.28
2018-08-08T07:31:09.038Z,26.95
2018-08-08T07:34:13.392Z,26.96
2018-08-08T07:37:17.765Z,27.08
2018-08-08T07:40:22.888Z,27.04
2018-08-08T07:43:27.313Z,26.94
2018-08-08T07:46:31.774Z,26.79
2018-08-08T07:49:36.245Z,26.77
2018-08-08T07:52:40.803Z,26.44
2018-08-08T07:55:45.669Z,27.05
2018-08-08T07:58:50.093Z,27.40
2018-08-08T08:01:54.558Z,27.57
2018-08-08T08:04:59.389Z,27.71
2018-08-08T08:08:03.829Z,27.48
2018-08-08T08:11:08.250Z,27.12
2018-08-08T08:14:12.569Z,26.81
2018-08-08T08:17:16.929Z,27.31
2018-08-08T08:20:21.240Z,28.01
2018-08-08T08:23:25.741Z,27.48
2018-08-08T08:26:30.042Z,27.41
2018-08-08T08:29:34.560Z,27.72
2018-08-08T08:32:39.209Z,27.34
2018-08-08T08:35:43.672Z,27.63
2018-08-08T08:38:48.344Z,27.38
2018-08-08T08:41:52.653Z,27.01
2018-08-08T08:44:59.262Z,26.95
2018-08-08T08:48:03.680Z,26.84
2018-08-08T08:51:08.390Z,26.73
2018-08-08T08:54:12.801Z,26.56
2018-08-08T08:57:17.581Z,26.67
2018-08-08T09:00:21.960Z,27.45
2018-08-08T09:03:26.361Z,26.84
2018-08-08T09:06:30.715Z,26.13
2018-08-08T09:09:35.073Z,26.27
2018-08-08T09:12:41.090Z,26.50
2018-08-08T09:15:45.425Z,26.01
2018-08-08T09:18:49.789Z,25.75
2018-08-08T09:21:54.712Z,26.30
2018-08-08T09:24:59.017Z,26.93
2018-08-08T09:28:03.322Z,26.65
2018-08-08T09:31:07.935Z,25.89
2018-08-08T09:34:12.237Z,26.34
2018-08-08T09:37:16.964Z,25.86
2018-08-08T09:40:21.294Z,25.97
2018-08-08T09:43:25.805Z,26.37
2018-08-08T09:46:30.127Z,25.63
2018-08-08T09:49:34.572Z,26.15
2018-08-08T09:52:39.192Z,26.06
2018-08-08T09:55:43.674Z,26.53
2018-08-08T09:58:48.178Z,26.27
2018-08-08T10:01:57.863Z,25.83
2018-08-08T10:05:02.205Z,25.56
2018-08-08T10:08:06.581Z,26.69
2018-08-08T10:11:10.865Z,26.43
2018-08-08T10:14:15.157Z,25.94
2018-08-08T10:17:19.981Z,25.81
2018-08-08T10:20:24.298Z,26.05
2018-08-08T10:23:28.777Z,26.38
2018-08-08T10:26:33.287Z,25.87
2018-08-08T10:29:37.626Z,26.56
2018-08-08T10:32:42.005Z,26.17
2018-08-08T10:35:46.389Z,26.69
2018-08-08T10:38:50.957Z,27.54
2018-08-08T10:41:55.622Z,26.79
2018-08-08T10:45:00.080Z,26.82
2018-08-08T10:48:04.597Z,27.24
2018-08-08T10:51:08.905Z,27.62
2018-08-08T10:54:14.015Z,26.94
2018-08-08T10:57:18.705Z,27.00
2018-08-08T11:00:23.061Z,27.29
2018-08-08T11:03:27.706Z,27.70
2018-08-08T11:06:32.166Z,27.81
2018-08-08T11:09:36.568Z,28.28
2018-08-08T11:12:41.009Z,27.79
2018-08-08T11:15:45.306Z,27.36
2018-08-08T11:18:50.079Z,26.95
2018-08-08T11:21:54.965Z,27.27
2018-08-08T11:24:59.603Z,27.94
2018-08-08T11:28:04.142Z,27.43
2018-08-08T11:31:08.766Z,27.49
2018-08-08T11:34:13.357Z,27.68
2018-08-08T11:37:17.687Z,28.39
2018-08-08T11:40:22.407Z,27.87
2018-08-08T11:43:26.809Z,28.83
2018-08-08T11:46:31.206Z,29.41
2018-08-08T11:49:35.581Z,28.93
2018-08-08T11:52:39.933Z,29.00
2018-08-08T11:55:44.249Z,29.36
2018-08-08T11:58:48.531Z,29.94
2018-08-08T12:01:53.156Z,29.54
2018-08-08T12:04:57.548Z,30.54
2018-08-08T12:08:02.179Z,30.15
2018-08-08T12:11:07.097Z,29.89
2018-08-08T12:14:12.033Z,29.60
2018-08-08T12:17:16.700Z,29.26
2018-08-08T12:20:21.792Z,28.89
2018-08-08T12:23:26.688Z,28.62
2018-08-08T12:26:32.902Z,29.41
2018-08-08T12:29:37.298Z,29.03
2018-08-08T12:32:42.028Z,28.99
2018-08-08T12:35:46.577Z,28.98
2018-08-08T12:38:50.906Z,29.05
2018-08-08T12:41:55.385Z,29.01
2018-08-08T12:44:59.820Z,29.31
2018-08-08T12:48:04.172Z,29.42
2018-08-08T12:51:08.525Z,29.34
2018-08-08T12:54:12.749Z,29.53
2018-08-08T12:57:17.040Z,29.40
2018-08-08T13:00:21.765Z,29.36
2018-08-08T13:03:26.240Z,28.91
2018-08-08T13:06:30.533Z,29.12
2018-08-08T13:09:35.298Z,29.08
2018-08-08T13:12:39.622Z,28.84
2018-08-08T13:15:43.993Z,29.31
2018-08-08T13:18:48.475Z,29.47
2018-08-08T13:21:53.179Z,29.61
2018-08-08T13:24:57.799Z,29.16
2018-08-08T13:28:02.562Z,29.01
2018-08-08T13:31:06.899Z,29.20
2018-08-08T13:34:11.198Z,29.25
2018-08-08T13:37:16.839Z,29.32
2018-08-08T13:40:21.684Z,29.47
2018-08-08T13:43:26.247Z,29.03
2018-08-08T13:46:30.741Z,29.08
2018-08-08T13:49:35.407Z,29.29
2018-08-08T13:52:39.903Z,29.52
2018-08-08T13:55:44.418Z,29.36
2018-08-08T13:58:48.861Z,29.90
2018-08-08T14:01:53.607Z,29.87
2018-08-08T14:04:58.070Z,29.81
2018-08-08T14:08:02.441Z,29.58
2018-08-08T14:11:06.729Z,29.54
2018-08-08T14:14:11.145Z,29.45
2018-08-08T14:17:16.080Z,29.24
2018-08-08T14:20:20.535Z,29.14
2018-08-08T14:23:24.990Z,29.21
2018-08-08T14:26:29.344Z,29.42
2018-08-08T14:29:33.961Z,29.40
2018-08-08T14:32:38.264Z,29.34
2018-08-08T14:35:42.959Z,29.67
2018-08-08T14:38:48.657Z,29.41
2018-08-08T14:41:53.089Z,29.50
2018-08-08T14:44:57.513Z,29.70
2018-08-08T14:48:02.029Z,29.60
2018-08-08T14:51:06.404Z,29.59
2018-08-08T14:54:10.941Z,29.19
2018-08-08T14:57:15.505Z,29.41
2018-08-08T15:00:19.862Z,29.32
2018-08-08T15:03:24.157Z,29.10
2018-08-08T15:06:28.797Z,29.13
2018-08-08T15:09:34.130Z,29.43
2018-08-08T15:12:38.733Z,29.59
2018-08-08T15:15:43.216Z,29.26
2018-08-08T15:18:48.296Z,29.36
2018-08-08T15:21:52.963Z,29.21
2018-08-08T15:24:57.268Z,29.41
2018-08-08T15:28:02.620Z,29.47
2018-08-08T15:31:07.643Z,29.71
2018-08-08T15:34:12.093Z,29.75
2018-08-08T15:37:17.208Z,29.63
2018-08-08T15:40:21.693Z,29.76
2018-08-08T15:43:26.601Z,29.60
2018-08-08T15:46:31.769Z,29.60
2018-08-08T15:49:36.364Z,29.46
2018-08-08T15:52:41.936Z,29.69
2018-08-08T15:55:46.981Z,29.63
2018-08-08T15:58:52.024Z,29.40
2018-08-08T16:01:57.720Z,29.12
2018-08-08T16:05:02.444Z,29.00
2018-08-08T16:08:07.441Z,29.13
2018-08-08T16:11:12.696Z,29.25
2018-08-08T16:14:21.590Z,29.50
2018-08-08T16:17:29.016Z,29.60
2018-08-08T16:20:39.643Z,29.66
2018-08-08T16:23:44.842Z,29.75
2018-08-08T16:26:49.853Z,29.47
2018-08-08T16:29:54.381Z,29.41
2018-08-08T16:33:02.960Z,29.59
2018-08-08T16:36:07.667Z,29.78
2018-08-08T16:39:12.962Z,29.85
2018-08-08T16:42:17.730Z,29.86
2018-08-08T16:45:22.374Z,29.70
2018-08-08T16:48:26.942Z,29.48
2018-08-08T16:51:31.725Z,29.46
2018-08-08T16:54:36.286Z,29.47
2018-08-08T16:57:40.725Z,29.24
2018-08-08T17:00:45.509Z,29.63
2018-08-08T17:03:50.455Z,29.27
2018-08-08T17:06:54.970Z,30.31
2018-08-08T17:10:00.655Z,31.62
2018-08-08T17:13:05.619Z,31.36
2018-08-08T17:16:10.397Z,30.12
2018-08-08T17:19:14.956Z,29.45
2018-08-08T17:22:19.693Z,29.38
2018-08-08T17:25:24.007Z,29.10
2018-08-08T17:28:28.578Z,29.22
2018-08-08T17:31:32.863Z,28.98
2018-08-08T17:34:37.570Z,28.74
2018-08-08T17:37:41.921Z,28.71
2018-08-08T17:40:46.593Z,28.58
2018-08-08T17:43:51.587Z,28.64
2018-08-08T17:46:55.703Z,28.64
2018-08-08T17:50:00.269Z,28.60
2018-08-08T17:53:04.725Z,28.38
2018-08-08T17:56:09.249Z,28.26
2018-08-08T17:59:13.823Z,28.21
2018-08-08T18:02:18.647Z,28.27
2018-08-08T18:05:23.470Z,28.17
2018-08-08T18:08:28.692Z,28.09
2018-08-08T18:11:33.227Z,28.12
2018-08-08T18:14:37.832Z,28.09
2018-08-08T18:17:42.290Z,28.03
2018-08-08T18:20:46.619Z,27.89
2018-08-08T18:23:51.445Z,27.81
2018-08-08T18:26:56.425Z,27.76
2018-08-08T18:30:01.092Z,27.64
2018-08-08T18:33:06.042Z,27.55
2018-08-08T18:36:10.969Z,27.26
2018-08-08T18:39:15.914Z,27.07
2018-08-08T18:42:20.325Z,26.90
2018-08-08T18:45:24.924Z,26.79
2018-08-08T18:48:29.535Z,26.62
2018-08-08T18:51:34.529Z,26.37
2018-08-08T18:54:39.064Z,26.10
2018-08-08T18:57:43.584Z,25.77
2018-08-08T19:00:48.413Z,25.58
2018-08-08T19:03:53.056Z,25.39
2018-08-08T19:06:57.966Z,25.19
2018-08-08T19:10:03.049Z,25.00
2018-08-08T19:13:07.775Z,24.90
2018-08-08T19:16:12.839Z,24.76
2018-08-08T19:19:17.558Z,24.68
2018-08-08T19:22:22.672Z,24.50
2018-08-08T19:25:27.598Z,24.40
2018-08-08T19:28:32.322Z,24.37
2018-08-08T19:31:37.172Z,24.21
2018-08-08T19:34:41.842Z,24.11
2018-08-08T19:37:47.170Z,23.99
2018-08-08T19:40:51.723Z,23.79
2018-08-08T19:43:56.513Z,23.72
2018-08-08T19:47:01.156Z,23.57
2018-08-08T19:50:06.210Z,23.56
2018-08-08T19:53:10.869Z,23.49
2018-08-08T19:56:17.659Z,23.38
2018-08-08T19:59:22.477Z,23.23
2018-08-08T20:02:27.722Z,23.18
2018-08-08T20:05:32.391Z,23.07
2018-08-08T20:08:36.947Z,23.13
2018-08-08T20:11:41.924Z,23.07
2018-08-08T20:14:46.640Z,23.10
2018-08-08T20:17:51.112Z,23.04
2018-08-08T20:20:56.568Z,22.99
2018-08-08T20:24:00.885Z,22.92
2018-08-08T20:27:05.812Z,22.91
2018-08-08T20:30:10.749Z,22.86
2018-08-08T20:33:15.333Z,22.73
2018-08-08T20:36:19.833Z,22.66
2018-08-08T20:39:24.442Z,22.58
2018-08-08T20:42:28.818Z,22.53
2018-08-08T20:45:33.377Z,22.37
2018-08-08T20:48:38.117Z,22.43
2018-08-08T20:51:42.688Z,22.40
2018-08-08T20:54:48.253Z,22.37
2018-08-08T20:57:52.617Z,22.31
2018-08-08T21:00:57.219Z,22.32
2018-08-08T21:04:02.009Z,22.23
2018-08-08T21:07:06.335Z,22.16
2018-08-08T21:10:10.608Z,22.11
2018-08-08T21:13:15.044Z,22.11
2018-08-08T21:16:19.889Z,22.07
2018-08-08T21:19:24.346Z,22.06
2018-08-08T21:22:29.331Z,21.98
2018-08-08T21:25:33.750Z,21.95
2018-08-08T21:28:38.093Z,21.96
2018-08-08T21:31:42.390Z,21.84
2018-08-08T21:34:47.569Z,21.82
2018-08-08T21:37:52.042Z,21.80
2018-08-08T21:40:56.525Z,21.64
2018-08-08T21:44:00.936Z,21.56
2018-08-08T21:47:05.394Z,21.62
2018-08-08T21:50:09.798Z,21.58
2018-08-08T21:53:17.696Z,21.52
2018-08-08T21:56:39.373Z,21.50
2018-08-08T22:00:00.665Z,21.55
2018-08-08T22:03:22.177Z,21.41
2018-08-08T22:06:43.819Z,21.39
2018-08-08T22:10:05.189Z,21.37
2018-08-08T22:13:26.658Z,21.43
2018-08-08T22:17:45.523Z,21.35
2018-08-08T22:20:49.926Z,21.30
2018-08-08T22:23:54.380Z,21.17
2018-08-08T22:26:59.086Z,21.15
2018-08-08T22:30:03.422Z,21.08
2018-08-08T22:33:07.772Z,21.07
2018-08-08T22:36:12.849Z,21.11
2018-08-08T22:39:18.301Z,21.10
2018-08-08T22:42:22.591Z,21.05
2018-08-08T22:45:27.242Z,20.98
2018-08-08T22:48:31.880Z,20.93
2018-08-08T22:51:36.217Z,20.88
2018-08-08T22:54:40.756Z,20.80
2018-08-08T22:57:45.039Z,20.72
2018-08-08T23:00:49.551Z,20.73
2018-08-08T23:03:54.530Z,20.69
2018-08-08T23:06:58.825Z,20.67
2018-08-08T23:10:03.357Z,20.68
2018-08-08T23:13:07.685Z,20.69
2018-08-08T23:16:12.581Z,20.61
2018-08-08T23:19:16.888Z,20.57
2018-08-08T23:22:38.195Z,20.47
2018-08-08T23:25:43.044Z,20.38
2018-08-08T23:28:47.410Z,20.30
2018-08-08T23:31:51.734Z,20.21
2018-08-08T23:34:56.050Z,20.17
2018-08-08T23:38:00.389Z,20.15
2018-08-08T23:41:04.797Z,20.05
2018-08-08T23:44:09.787Z,20.00
2018-08-08T23:47:14.075Z,19.89
2018-08-08T23:50:18.410Z,19.85
2018-08-08T23:53:22.837Z,19.80
2018-08-08T23:56:27.426Z,19.74
2018-08-08T23:59:31.833Z,19.75
